Austin, Mississippi
Current Conditions -  °F | °C
As of 6:35 AM on Sunday 23 Nov 2014 (Local Time) from KUTA Reporting Station
Overcast Overcast  
Wind Chill: 59°   Ceiling: 1000
Heat Index: 59°   Visibility: 10mi
Dew Point: 55°   Wind: 10mph
Humidity: 88%   Direction: 140°SE
Pressure: 29.75"   Gusts: NA
Location:  34.6827°N, 90.3615°W
Report Text: KUTA 231235Z AUTO 14009KT 10SM OVC010 15/13 A2975 RMK AO2
Loading
Personal Weather Stations






























Interactive Weather Map New forecast layout! Learn more

10-Day Weather Forecast

Advertisements
Track Severe Weather on mobile